sensor_id;sensor_type;location;lat;lon;timestamp;P1;durP1;ratioP1;P2;durP2;ratioP2
57029;SDS011;42920;45.306;20.448;2022-09-24T00:01:20;21.08;;;12.70;;
57029;SDS011;42920;45.306;20.448;2022-09-24T00:03:49;21.65;;;14.02;;
57029;SDS011;42920;45.306;20.448;2022-09-24T00:06:20;19.70;;;13.38;;
57029;SDS011;42920;45.306;20.448;2022-09-24T00:08:46;21.48;;;12.85;;
57029;SDS011;42920;45.306;20.448;2022-09-24T00:11:13;28.13;;;14.00;;
57029;SDS011;42920;45.306;20.448;2022-09-24T00:13:40;20.42;;;13.23;;
57029;SDS011;42920;45.306;20.448;2022-09-24T00:16:10;26.40;;;13.00;;
57029;SDS011;42920;45.306;20.448;2022-09-24T00:18:38;18.42;;;12.63;;
57029;SDS011;42920;45.306;20.448;2022-09-24T00:23:41;22.73;;;15.40;;
57029;SDS011;42920;45.306;20.448;2022-09-24T00:26:08;24.30;;;15.23;;
57029;SDS011;42920;45.306;20.448;2022-09-24T00:28:53;25.02;;;13.25;;
57029;SDS011;42920;45.306;20.448;2022-09-24T00:31:19;24.02;;;13.70;;
57029;SDS011;42920;45.306;20.448;2022-09-24T00:36:10;23.85;;;13.35;;
57029;SDS011;42920;45.306;20.448;2022-09-24T00:38:39;21.70;;;13.30;;
57029;SDS011;42920;45.306;20.448;2022-09-24T00:41:05;21.80;;;13.50;;
57029;SDS011;42920;45.306;20.448;2022-09-24T00:46:05;20.08;;;13.07;;
57029;SDS011;42920;45.306;20.448;2022-09-24T00:48:38;17.65;;;11.55;;
57029;SDS011;42920;45.306;20.448;2022-09-24T00:51:05;17.52;;;12.15;;
57029;SDS011;42920;45.306;20.448;2022-09-24T00:53:33;18.30;;;13.02;;
57029;SDS011;42920;45.306;20.448;2022-09-24T00:56:00;19.50;;;12.70;;
57029;SDS011;42920;45.306;20.448;2022-09-24T00:58:28;23.67;;;12.70;;
57029;SDS011;42920;45.306;20.448;2022-09-24T01:00:58;21.80;;;12.52;;
57029;SDS011;42920;45.306;20.448;2022-09-24T01:03:31;22.13;;;12.93;;
57029;SDS011;42920;45.306;20.448;2022-09-24T01:06:03;20.52;;;12.23;;
57029;SDS011;42920;45.306;20.448;2022-09-24T01:08:29;21.65;;;12.85;;
57029;SDS011;42920;45.306;20.448;2022-09-24T01:16:23;20.35;;;12.65;;
57029;SDS011;42920;45.306;20.448;2022-09-24T01:27:12;23.63;;;13.82;;
57029;SDS011;42920;45.306;20.448;2022-09-24T01:34:44;21.55;;;13.80;;
57029;SDS011;42920;45.306;20.448;2022-09-24T01:37:16;23.88;;;12.57;;
57029;SDS011;42920;45.306;20.448;2022-09-24T01:39:46;22.98;;;13.68;;
57029;SDS011;42920;45.306;20.448;2022-09-24T01:42:15;17.75;;;12.48;;
57029;SDS011;42920;45.306;20.448;2022-09-24T01:44:42;25.50;;;14.15;;
57029;SDS011;42920;45.306;20.448;2022-09-24T01:47:08;21.65;;;13.52;;
57029;SDS011;42920;45.306;20.448;2022-09-24T01:49:40;20.45;;;13.50;;
57029;SDS011;42920;45.306;20.448;2022-09-24T01:52:06;23.08;;;11.93;;
57029;SDS011;42920;45.306;20.448;2022-09-24T01:54:38;18.83;;;11.43;;
57029;SDS011;42920;45.306;20.448;2022-09-24T01:57:08;19.95;;;12.20;;
57029;SDS011;42920;45.306;20.448;2022-09-24T01:59:56;18.70;;;11.63;;
57029;SDS011;42920;45.306;20.448;2022-09-24T02:07:45;23.58;;;14.32;;
57029;SDS011;42920;45.306;20.448;2022-09-24T02:10:19;27.20;;;14.67;;
57029;SDS011;42920;45.306;20.448;2022-09-24T02:12:47;23.95;;;13.75;;
57029;SDS011;42920;45.306;20.448;2022-09-24T02:15:25;21.08;;;12.25;;
57029;SDS011;42920;45.306;20.448;2022-09-24T02:17:55;20.83;;;12.95;;
57029;SDS011;42920;45.306;20.448;2022-09-24T02:20:24;18.08;;;12.57;;
57029;SDS011;42920;45.306;20.448;2022-09-24T02:22:53;17.67;;;11.45;;
57029;SDS011;42920;45.306;20.448;2022-09-24T02:25:27;18.02;;;12.05;;
57029;SDS011;42920;45.306;20.448;2022-09-24T02:27:58;21.25;;;14.35;;
57029;SDS011;42920;45.306;20.448;2022-09-24T02:30:23;26.02;;;14.27;;
57029;SDS011;42920;45.306;20.448;2022-09-24T02:32:49;21.88;;;13.15;;
57029;SDS011;42920;45.306;20.448;2022-09-24T02:35:18;18.27;;;11.57;;
57029;SDS011;42920;45.306;20.448;2022-09-24T02:37:46;18.33;;;12.63;;
57029;SDS011;42920;45.306;20.448;2022-09-24T02:40:12;24.30;;;13.15;;
57029;SDS011;42920;45.306;20.448;2022-09-24T02:42:44;19.75;;;12.32;;
57029;SDS011;42920;45.306;20.448;2022-09-24T02:45:10;20.20;;;13.75;;
57029;SDS011;42920;45.306;20.448;2022-09-24T02:50:02;20.65;;;11.90;;
57029;SDS011;42920;45.306;20.448;2022-09-24T02:52:28;20.02;;;12.88;;
57029;SDS011;42920;45.306;20.448;2022-09-24T02:54:54;22.55;;;13.95;;
57029;SDS011;42920;45.306;20.448;2022-09-24T02:59:45;24.70;;;13.13;;
57029;SDS011;42920;45.306;20.448;2022-09-24T03:04:37;18.50;;;12.27;;
57029;SDS011;42920;45.306;20.448;2022-09-24T03:07:03;22.33;;;13.82;;
57029;SDS011;42920;45.306;20.448;2022-09-24T03:11:54;21.00;;;12.93;;
57029;SDS011;42920;45.306;20.448;2022-09-24T03:14:24;21.88;;;13.63;;
57029;SDS011;42920;45.306;20.448;2022-09-24T03:16:50;20.70;;;13.98;;
57029;SDS011;42920;45.306;20.448;2022-09-24T03:19:16;21.20;;;14.27;;
57029;SDS011;42920;45.306;20.448;2022-09-24T03:24:07;23.88;;;14.50;;
57029;SDS011;42920;45.306;20.448;2022-09-24T03:28:59;21.05;;;13.73;;
57029;SDS011;42920;45.306;20.448;2022-09-24T03:33:50;24.35;;;15.02;;
57029;SDS011;42920;45.306;20.448;2022-09-24T03:38:47;25.52;;;13.90;;
57029;SDS011;42920;45.306;20.448;2022-09-24T03:41:14;25.20;;;15.55;;
57029;SDS011;42920;45.306;20.448;2022-09-24T03:43:42;28.38;;;16.23;;
57029;SDS011;42920;45.306;20.448;2022-09-24T03:46:08;27.80;;;16.63;;
57029;SDS011;42920;45.306;20.448;2022-09-24T03:48:36;28.83;;;17.80;;
57029;SDS011;42920;45.306;20.448;2022-09-24T03:51:04;25.48;;;15.55;;
57029;SDS011;42920;45.306;20.448;2022-09-24T03:53:30;30.50;;;17.02;;
57029;SDS011;42920;45.306;20.448;2022-09-24T03:55:56;30.65;;;16.52;;
57029;SDS011;42920;45.306;20.448;2022-09-24T03:58:23;34.55;;;17.00;;
57029;SDS011;42920;45.306;20.448;2022-09-24T04:00:53;28.48;;;17.48;;
57029;SDS011;42920;45.306;20.448;2022-09-24T04:03:22;31.45;;;17.83;;
57029;SDS011;42920;45.306;20.448;2022-09-24T04:05:48;28.08;;;17.50;;
57029;SDS011;42920;45.306;20.448;2022-09-24T04:08:15;29.65;;;18.08;;
57029;SDS011;42920;45.306;20.448;2022-09-24T04:10:46;29.92;;;18.73;;
57029;SDS011;42920;45.306;20.448;2022-09-24T04:13:13;30.35;;;18.63;;
57029;SDS011;42920;45.306;20.448;2022-09-24T04:15:39;34.25;;;19.58;;
57029;SDS011;42920;45.306;20.448;2022-09-24T04:18:05;32.38;;;17.77;;
57029;SDS011;42920;45.306;20.448;2022-09-24T04:20:31;28.23;;;16.92;;
57029;SDS011;42920;45.306;20.448;2022-09-24T04:22:58;27.40;;;17.25;;
57029;SDS011;42920;45.306;20.448;2022-09-24T04:25:25;30.90;;;17.73;;
57029;SDS011;42920;45.306;20.448;2022-09-24T04:28:04;29.70;;;16.65;;
57029;SDS011;42920;45.306;20.448;2022-09-24T04:30:31;28.92;;;16.33;;
57029;SDS011;42920;45.306;20.448;2022-09-24T04:32:58;29.75;;;17.23;;
57029;SDS011;42920;45.306;20.448;2022-09-24T04:35:25;30.05;;;17.13;;
57029;SDS011;42920;45.306;20.448;2022-09-24T04:37:51;29.45;;;16.02;;
57029;SDS011;42920;45.306;20.448;2022-09-24T04:40:17;33.08;;;17.73;;
57029;SDS011;42920;45.306;20.448;2022-09-24T04:42:43;27.15;;;16.38;;
57029;SDS011;42920;45.306;20.448;2022-09-24T04:45:10;29.38;;;16.83;;
57029;SDS011;42920;45.306;20.448;2022-09-24T04:47:37;26.02;;;17.58;;
57029;SDS011;42920;45.306;20.448;2022-09-24T04:50:07;29.40;;;17.98;;
57029;SDS011;42920;45.306;20.448;2022-09-24T04:52:35;31.77;;;19.05;;
57029;SDS011;42920;45.306;20.448;2022-09-24T04:55:01;28.13;;;18.45;;
57029;SDS011;42920;45.306;20.448;2022-09-24T04:57:28;27.88;;;17.75;;
57029;SDS011;42920;45.306;20.448;2022-09-24T05:00:00;33.95;;;19.30;;
57029;SDS011;42920;45.306;20.448;2022-09-24T05:02:29;37.65;;;19.00;;
57029;SDS011;42920;45.306;20.448;2022-09-24T05:04:55;35.53;;;20.75;;
57029;SDS011;42920;45.306;20.448;2022-09-24T05:09:46;35.08;;;18.55;;
57029;SDS011;42920;45.306;20.448;2022-09-24T05:12:12;35.65;;;22.52;;
57029;SDS011;42920;45.306;20.448;2022-09-24T05:17:03;39.63;;;22.13;;
57029;SDS011;42920;45.306;20.448;2022-09-24T05:21:55;44.53;;;22.67;;
57029;SDS011;42920;45.306;20.448;2022-09-24T05:26:46;35.05;;;20.90;;
57029;SDS011;42920;45.306;20.448;2022-09-24T05:29:30;32.75;;;21.60;;
57029;SDS011;42920;45.306;20.448;2022-09-24T05:31:56;38.17;;;22.08;;
57029;SDS011;42920;45.306;20.448;2022-09-24T05:36:47;33.97;;;21.50;;
57029;SDS011;42920;45.306;20.448;2022-09-24T05:39:13;36.40;;;22.05;;
57029;SDS011;42920;45.306;20.448;2022-09-24T05:41:39;32.97;;;22.02;;
57029;SDS011;42920;45.306;20.448;2022-09-24T05:46:31;32.60;;;20.48;;
57029;SDS011;42920;45.306;20.448;2022-09-24T05:48:57;34.75;;;21.25;;
57029;SDS011;42920;45.306;20.448;2022-09-24T05:51:23;31.75;;;18.75;;
57029;SDS011;42920;45.306;20.448;2022-09-24T05:53:49;29.50;;;19.55;;
57029;SDS011;42920;45.306;20.448;2022-09-24T05:56:15;31.67;;;19.33;;
57029;SDS011;42920;45.306;20.448;2022-09-24T05:58:41;36.60;;;19.10;;
57029;SDS011;42920;45.306;20.448;2022-09-24T06:01:07;31.58;;;19.10;;
57029;SDS011;42920;45.306;20.448;2022-09-24T06:03:33;29.77;;;18.20;;
57029;SDS011;42920;45.306;20.448;2022-09-24T06:05:59;31.95;;;19.45;;
57029;SDS011;42920;45.306;20.448;2022-09-24T06:08:28;33.17;;;19.60;;
57029;SDS011;42920;45.306;20.448;2022-09-24T06:10:58;26.95;;;19.25;;
57029;SDS011;42920;45.306;20.448;2022-09-24T06:13:29;30.58;;;19.92;;
57029;SDS011;42920;45.306;20.448;2022-09-24T06:18:28;37.97;;;21.05;;
57029;SDS011;42920;45.306;20.448;2022-09-24T06:20:59;32.72;;;21.40;;
57029;SDS011;42920;45.306;20.448;2022-09-24T06:23:29;29.00;;;19.33;;
57029;SDS011;42920;45.306;20.448;2022-09-24T06:26:01;31.88;;;20.10;;
57029;SDS011;42920;45.306;20.448;2022-09-24T06:28:29;30.85;;;18.15;;
57029;SDS011;42920;45.306;20.448;2022-09-24T06:30:54;28.08;;;19.40;;
57029;SDS011;42920;45.306;20.448;2022-09-24T06:33:23;26.88;;;18.35;;
57029;SDS011;42920;45.306;20.448;2022-09-24T06:35:49;28.95;;;16.75;;
57029;SDS011;42920;45.306;20.448;2022-09-24T06:40:42;27.60;;;17.95;;
57029;SDS011;42920;45.306;20.448;2022-09-24T06:43:15;26.80;;;18.88;;
57029;SDS011;42920;45.306;20.448;2022-09-24T06:45:42;30.25;;;17.70;;
57029;SDS011;42920;45.306;20.448;2022-09-24T06:48:12;27.38;;;18.45;;
57029;SDS011;42920;45.306;20.448;2022-09-24T06:50:42;26.17;;;17.40;;
57029;SDS011;42920;45.306;20.448;2022-09-24T06:53:10;44.00;;;18.73;;
57029;SDS011;42920;45.306;20.448;2022-09-24T06:55:36;23.00;;;16.55;;
57029;SDS011;42920;45.306;20.448;2022-09-24T06:58:03;26.98;;;16.77;;
57029;SDS011;42920;45.306;20.448;2022-09-24T07:00:31;25.15;;;16.63;;
57029;SDS011;42920;45.306;20.448;2022-09-24T07:02:57;33.97;;;16.23;;
57029;SDS011;42920;45.306;20.448;2022-09-24T07:05:23;24.95;;;17.13;;
57029;SDS011;42920;45.306;20.448;2022-09-24T07:07:48;28.67;;;17.45;;
57029;SDS011;42920;45.306;20.448;2022-09-24T07:10:14;29.00;;;15.90;;
57029;SDS011;42920;45.306;20.448;2022-09-24T07:12:41;21.38;;;15.90;;
57029;SDS011;42920;45.306;20.448;2022-09-24T07:15:07;20.17;;;13.88;;
57029;SDS011;42920;45.306;20.448;2022-09-24T07:17:33;19.02;;;13.45;;
57029;SDS011;42920;45.306;20.448;2022-09-24T07:19:59;20.00;;;14.25;;
57029;SDS011;42920;45.306;20.448;2022-09-24T07:22:26;24.83;;;13.00;;
57029;SDS011;42920;45.306;20.448;2022-09-24T07:24:52;40.45;;;15.63;;
57029;SDS011;42920;45.306;20.448;2022-09-24T07:27:17;24.45;;;13.63;;
57029;SDS011;42920;45.306;20.448;2022-09-24T07:29:45;19.13;;;13.68;;
57029;SDS011;42920;45.306;20.448;2022-09-24T07:32:11;22.52;;;12.50;;
57029;SDS011;42920;45.306;20.448;2022-09-24T07:34:39;21.10;;;13.82;;
57029;SDS011;42920;45.306;20.448;2022-09-24T07:37:05;19.65;;;12.32;;
57029;SDS011;42920;45.306;20.448;2022-09-24T07:39:31;22.75;;;12.15;;
57029;SDS011;42920;45.306;20.448;2022-09-24T07:41:57;22.58;;;14.50;;
57029;SDS011;42920;45.306;20.448;2022-09-24T07:44:25;17.05;;;11.95;;
57029;SDS011;42920;45.306;20.448;2022-09-24T07:46:51;18.40;;;10.02;;
57029;SDS011;42920;45.306;20.448;2022-09-24T07:49:17;15.73;;;10.80;;
57029;SDS011;42920;45.306;20.448;2022-09-24T07:51:43;18.02;;;11.70;;
57029;SDS011;42920;45.306;20.448;2022-09-24T07:54:09;15.90;;;10.05;;
57029;SDS011;42920;45.306;20.448;2022-09-24T07:56:35;16.10;;;10.30;;
57029;SDS011;42920;45.306;20.448;2022-09-24T07:59:01;26.85;;;12.82;;
57029;SDS011;42920;45.306;20.448;2022-09-24T08:01:30;19.75;;;12.75;;
57029;SDS011;42920;45.306;20.448;2022-09-24T08:03:57;18.58;;;11.43;;
57029;SDS011;42920;45.306;20.448;2022-09-24T08:06:23;16.75;;;10.60;;
57029;SDS011;42920;45.306;20.448;2022-09-24T08:08:50;19.23;;;10.55;;
57029;SDS011;42920;45.306;20.448;2022-09-24T08:11:20;16.17;;;9.85;;
57029;SDS011;42920;45.306;20.448;2022-09-24T08:13:46;13.38;;;9.30;;
57029;SDS011;42920;45.306;20.448;2022-09-24T08:16:12;12.65;;;8.65;;
57029;SDS011;42920;45.306;20.448;2022-09-24T08:18:41;12.85;;;9.10;;
57029;SDS011;42920;45.306;20.448;2022-09-24T08:21:08;14.05;;;8.25;;
57029;SDS011;42920;45.306;20.448;2022-09-24T08:23:36;17.52;;;9.85;;
57029;SDS011;42920;45.306;20.448;2022-09-24T08:26:03;15.23;;;8.80;;
57029;SDS011;42920;45.306;20.448;2022-09-24T08:28:30;30.33;;;10.93;;
57029;SDS011;42920;45.306;20.448;2022-09-24T08:30:56;12.48;;;7.68;;
57029;SDS011;42920;45.306;20.448;2022-09-24T08:33:28;12.63;;;8.05;;
57029;SDS011;42920;45.306;20.448;2022-09-24T08:35:58;12.55;;;8.07;;
57029;SDS011;42920;45.306;20.448;2022-09-24T08:38:24;25.45;;;8.48;;
57029;SDS011;42920;45.306;20.448;2022-09-24T08:46:18;9.82;;;6.85;;
57029;SDS011;42920;45.306;20.448;2022-09-24T08:49:06;15.27;;;7.35;;
57029;SDS011;42920;45.306;20.448;2022-09-24T08:51:40;11.25;;;6.15;;
57029;SDS011;42920;45.306;20.448;2022-09-24T08:54:15;11.52;;;7.32;;
57029;SDS011;42920;45.306;20.448;2022-09-24T08:56:44;7.78;;;4.75;;
57029;SDS011;42920;45.306;20.448;2022-09-24T09:10:14;10.70;;;4.88;;
57029;SDS011;42920;45.306;20.448;2022-09-24T09:13:08;7.35;;;3.92;;
57029;SDS011;42920;45.306;20.448;2022-09-24T09:15:48;9.38;;;5.45;;
57029;SDS011;42920;45.306;20.448;2022-09-24T09:18:25;7.57;;;4.43;;
57029;SDS011;42920;45.306;20.448;2022-09-24T09:21:02;6.07;;;3.90;;
57029;SDS011;42920;45.306;20.448;2022-09-24T09:23:39;9.13;;;4.32;;
57029;SDS011;42920;45.306;20.448;2022-09-24T09:26:12;10.02;;;4.32;;
57029;SDS011;42920;45.306;20.448;2022-09-24T09:28:38;6.50;;;4.28;;
57029;SDS011;42920;45.306;20.448;2022-09-24T09:44:39;6.43;;;3.58;;
57029;SDS011;42920;45.306;20.448;2022-09-24T09:50:05;7.72;;;2.90;;
57029;SDS011;42920;45.306;20.448;2022-09-24T09:52:39;7.35;;;3.00;;
57029;SDS011;42920;45.306;20.448;2022-09-24T09:55:05;10.25;;;3.53;;
57029;SDS011;42920;45.306;20.448;2022-09-24T09:57:32;5.68;;;2.85;;
57029;SDS011;42920;45.306;20.448;2022-09-24T10:00:02;12.85;;;2.97;;
57029;SDS011;42920;45.306;20.448;2022-09-24T10:02:30;6.45;;;2.83;;
57029;SDS011;42920;45.306;20.448;2022-09-24T10:05:02;3.67;;;2.67;;
57029;SDS011;42920;45.306;20.448;2022-09-24T10:07:30;7.43;;;3.35;;
57029;SDS011;42920;45.306;20.448;2022-09-24T10:10:00;7.45;;;2.67;;
57029;SDS011;42920;45.306;20.448;2022-09-24T10:12:53;3.63;;;2.28;;
57029;SDS011;42920;45.306;20.448;2022-09-24T10:15:33;7.47;;;2.60;;
57029;SDS011;42920;45.306;20.448;2022-09-24T10:17:59;5.60;;;2.40;;
57029;SDS011;42920;45.306;20.448;2022-09-24T10:20:30;4.57;;;2.40;;
57029;SDS011;42920;45.306;20.448;2022-09-24T10:23:01;3.88;;;2.60;;
57029;SDS011;42920;45.306;20.448;2022-09-24T10:25:31;9.57;;;3.58;;
57029;SDS011;42920;45.306;20.448;2022-09-24T10:27:59;8.88;;;2.55;;
57029;SDS011;42920;45.306;20.448;2022-09-24T10:30:53;6.38;;;2.97;;
57029;SDS011;42920;45.306;20.448;2022-09-24T10:33:22;7.63;;;2.80;;
57029;SDS011;42920;45.306;20.448;2022-09-24T10:35:48;4.45;;;2.80;;
57029;SDS011;42920;45.306;20.448;2022-09-24T10:38:19;9.68;;;2.95;;
57029;SDS011;42920;45.306;20.448;2022-09-24T10:40:49;4.43;;;2.63;;
57029;SDS011;42920;45.306;20.448;2022-09-24T10:43:16;4.68;;;2.90;;
57029;SDS011;42920;45.306;20.448;2022-09-24T10:56:30;5.43;;;3.30;;
57029;SDS011;42920;45.306;20.448;2022-09-24T11:04:49;5.57;;;2.72;;
57029;SDS011;42920;45.306;20.448;2022-09-24T11:10:14;5.97;;;2.95;;
57029;SDS011;42920;45.306;20.448;2022-09-24T11:13:16;3.67;;;2.40;;
57029;SDS011;42920;45.306;20.448;2022-09-24T11:16:04;6.95;;;2.80;;
57029;SDS011;42920;45.306;20.448;2022-09-24T11:19:01;7.93;;;3.50;;
57029;SDS011;42920;45.306;20.448;2022-09-24T11:30:05;6.32;;;2.83;;
57029;SDS011;42920;45.306;20.448;2022-09-24T11:38:07;4.78;;;2.78;;
57029;SDS011;42920;45.306;20.448;2022-09-24T11:43:06;3.60;;;2.50;;
57029;SDS011;42920;45.306;20.448;2022-09-24T11:46:07;4.10;;;2.92;;
57029;SDS011;42920;45.306;20.448;2022-09-24T11:48:54;4.25;;;2.72;;
57029;SDS011;42920;45.306;20.448;2022-09-24T12:02:14;9.25;;;2.85;;
57029;SDS011;42920;45.306;20.448;2022-09-24T12:07:48;4.45;;;2.63;;
57029;SDS011;42920;45.306;20.448;2022-09-24T12:13:07;6.43;;;2.97;;
57029;SDS011;42920;45.306;20.448;2022-09-24T12:15:54;10.32;;;3.63;;
57029;SDS011;42920;45.306;20.448;2022-09-24T12:18:22;4.75;;;2.85;;
57029;SDS011;42920;45.306;20.448;2022-09-24T12:20:59;4.63;;;2.40;;
57029;SDS011;42920;45.306;20.448;2022-09-24T12:23:32;3.78;;;2.53;;
57029;SDS011;42920;45.306;20.448;2022-09-24T12:26:03;6.40;;;3.10;;
57029;SDS011;42920;45.306;20.448;2022-09-24T12:28:42;7.47;;;2.33;;
57029;SDS011;42920;45.306;20.448;2022-09-24T12:31:48;4.65;;;2.90;;
57029;SDS011;42920;45.306;20.448;2022-09-24T12:37:08;7.55;;;3.03;;
57029;SDS011;42920;45.306;20.448;2022-09-24T12:39:40;3.72;;;2.55;;
57029;SDS011;42920;45.306;20.448;2022-09-24T12:42:25;12.77;;;4.72;;
57029;SDS011;42920;45.306;20.448;2022-09-24T12:44:56;3.65;;;2.38;;
57029;SDS011;42920;45.306;20.448;2022-09-24T12:47:26;3.92;;;2.40;;
57029;SDS011;42920;45.306;20.448;2022-09-24T12:49:56;8.98;;;3.35;;
57029;SDS011;42920;45.306;20.448;2022-09-24T12:52:38;7.35;;;3.10;;
57029;SDS011;42920;45.306;20.448;2022-09-24T12:55:17;7.72;;;3.33;;
57029;SDS011;42920;45.306;20.448;2022-09-24T12:58:20;6.55;;;3.83;;
57029;SDS011;42920;45.306;20.448;2022-09-24T13:01:11;6.45;;;3.58;;
57029;SDS011;42920;45.306;20.448;2022-09-24T13:04:23;4.85;;;2.75;;
57029;SDS011;42920;45.306;20.448;2022-09-24T13:06:51;4.97;;;3.20;;
57029;SDS011;42920;45.306;20.448;2022-09-24T13:09:31;5.40;;;2.50;;
57029;SDS011;42920;45.306;20.448;2022-09-24T13:12:04;4.32;;;2.53;;
57029;SDS011;42920;45.306;20.448;2022-09-24T13:14:40;8.88;;;3.10;;
57029;SDS011;42920;45.306;20.448;2022-09-24T13:17:12;6.88;;;2.97;;
57029;SDS011;42920;45.306;20.448;2022-09-24T13:19:40;5.03;;;3.08;;
57029;SDS011;42920;45.306;20.448;2022-09-24T13:27:38;4.90;;;2.83;;
57029;SDS011;42920;45.306;20.448;2022-09-24T13:32:50;5.85;;;2.83;;
57029;SDS011;42920;45.306;20.448;2022-09-24T13:35:23;5.13;;;2.88;;
57029;SDS011;42920;45.306;20.448;2022-09-24T13:37:55;6.15;;;2.53;;
57029;SDS011;42920;45.306;20.448;2022-09-24T13:40:44;3.95;;;2.60;;
57029;SDS011;42920;45.306;20.448;2022-09-24T13:43:38;6.18;;;3.05;;
57029;SDS011;42920;45.306;20.448;2022-09-24T13:46:06;5.68;;;2.85;;
57029;SDS011;42920;45.306;20.448;2022-09-24T13:48:44;7.35;;;3.03;;
57029;SDS011;42920;45.306;20.448;2022-09-24T13:51:24;5.25;;;3.72;;
57029;SDS011;42920;45.306;20.448;2022-09-24T13:56:43;4.80;;;3.05;;
57029;SDS011;42920;45.306;20.448;2022-09-24T13:59:20;8.95;;;4.35;;
57029;SDS011;42920;45.306;20.448;2022-09-24T14:01:46;5.90;;;4.13;;
57029;SDS011;42920;45.306;20.448;2022-09-24T14:04:16;7.88;;;4.50;;
57029;SDS011;42920;45.306;20.448;2022-09-24T14:06:50;7.63;;;4.05;;
57029;SDS011;42920;45.306;20.448;2022-09-24T14:11:50;5.80;;;4.30;;
57029;SDS011;42920;45.306;20.448;2022-09-24T14:14:21;9.43;;;5.45;;
57029;SDS011;42920;45.306;20.448;2022-09-24T14:16:49;11.43;;;5.70;;
57029;SDS011;42920;45.306;20.448;2022-09-24T14:19:18;11.05;;;5.35;;
57029;SDS011;42920;45.306;20.448;2022-09-24T14:26:53;9.30;;;5.15;;
57029;SDS011;42920;45.306;20.448;2022-09-24T14:29:26;25.85;;;12.98;;
57029;SDS011;42920;45.306;20.448;2022-09-24T14:31:57;53.60;;;25.73;;
57029;SDS011;42920;45.306;20.448;2022-09-24T14:34:27;24.40;;;10.60;;
57029;SDS011;42920;45.306;20.448;2022-09-24T14:36:56;19.58;;;9.27;;
57029;SDS011;42920;45.306;20.448;2022-09-24T14:39:30;18.25;;;8.25;;
57029;SDS011;42920;45.306;20.448;2022-09-24T14:42:10;14.57;;;8.57;;
57029;SDS011;42920;45.306;20.448;2022-09-24T14:45:04;13.52;;;8.13;;
57029;SDS011;42920;45.306;20.448;2022-09-24T14:47:33;8.68;;;5.35;;
57029;SDS011;42920;45.306;20.448;2022-09-24T14:50:00;7.07;;;4.75;;
57029;SDS011;42920;45.306;20.448;2022-09-24T14:52:32;10.55;;;6.38;;
57029;SDS011;42920;45.306;20.448;2022-09-24T14:55:18;9.35;;;5.47;;
57029;SDS011;42920;45.306;20.448;2022-09-24T14:57:45;33.55;;;10.35;;
57029;SDS011;42920;45.306;20.448;2022-09-24T15:00:19;13.98;;;7.65;;
57029;SDS011;42920;45.306;20.448;2022-09-24T15:05:25;11.50;;;6.57;;
57029;SDS011;42920;45.306;20.448;2022-09-24T15:07:53;14.88;;;7.63;;
57029;SDS011;42920;45.306;20.448;2022-09-24T15:10:36;19.02;;;10.77;;
57029;SDS011;42920;45.306;20.448;2022-09-24T15:13:13;28.67;;;14.25;;
57029;SDS011;42920;45.306;20.448;2022-09-24T15:15:43;28.58;;;15.43;;
57029;SDS011;42920;45.306;20.448;2022-09-24T15:18:09;20.67;;;11.10;;
57029;SDS011;42920;45.306;20.448;2022-09-24T15:20:36;17.17;;;9.73;;
57029;SDS011;42920;45.306;20.448;2022-09-24T15:23:02;19.27;;;9.55;;
57029;SDS011;42920;45.306;20.448;2022-09-24T15:25:27;19.38;;;9.57;;
57029;SDS011;42920;45.306;20.448;2022-09-24T15:27:53;15.23;;;7.22;;
57029;SDS011;42920;45.306;20.448;2022-09-24T15:30:19;12.65;;;6.55;;
57029;SDS011;42920;45.306;20.448;2022-09-24T15:32:46;13.52;;;6.80;;
57029;SDS011;42920;45.306;20.448;2022-09-24T15:35:14;15.48;;;7.55;;
57029;SDS011;42920;45.306;20.448;2022-09-24T15:37:40;13.13;;;6.07;;
57029;SDS011;42920;45.306;20.448;2022-09-24T15:40:17;11.55;;;5.97;;
57029;SDS011;42920;45.306;20.448;2022-09-24T15:42:47;11.98;;;6.50;;
57029;SDS011;42920;45.306;20.448;2022-09-24T15:45:17;18.35;;;9.25;;
57029;SDS011;42920;45.306;20.448;2022-09-24T15:47:45;19.20;;;8.80;;
57029;SDS011;42920;45.306;20.448;2022-09-24T15:50:12;17.85;;;8.98;;
57029;SDS011;42920;45.306;20.448;2022-09-24T15:52:43;28.20;;;11.77;;
57029;SDS011;42920;45.306;20.448;2022-09-24T15:55:17;25.67;;;14.02;;
57029;SDS011;42920;45.306;20.448;2022-09-24T15:57:44;41.45;;;22.55;;
57029;SDS011;42920;45.306;20.448;2022-09-24T16:00:11;47.33;;;23.60;;
57029;SDS011;42920;45.306;20.448;2022-09-24T16:02:41;38.95;;;20.17;;
57029;SDS011;42920;45.306;20.448;2022-09-24T16:05:11;32.50;;;15.63;;
57029;SDS011;42920;45.306;20.448;2022-09-24T16:07:37;42.70;;;16.73;;
57029;SDS011;42920;45.306;20.448;2022-09-24T16:10:03;31.27;;;16.10;;
57029;SDS011;42920;45.306;20.448;2022-09-24T16:12:29;32.55;;;15.10;;
57029;SDS011;42920;45.306;20.448;2022-09-24T16:14:55;35.25;;;17.40;;
57029;SDS011;42920;45.306;20.448;2022-09-24T16:17:23;40.65;;;18.88;;
57029;SDS011;42920;45.306;20.448;2022-09-24T16:19:50;33.00;;;15.23;;
57029;SDS011;42920;45.306;20.448;2022-09-24T16:22:15;27.92;;;13.73;;
57029;SDS011;42920;45.306;20.448;2022-09-24T16:24:41;28.55;;;12.13;;
57029;SDS011;42920;45.306;20.448;2022-09-24T16:27:07;26.35;;;12.55;;
57029;SDS011;42920;45.306;20.448;2022-09-24T16:29:33;25.10;;;12.32;;
57029;SDS011;42920;45.306;20.448;2022-09-24T16:31:59;32.35;;;15.63;;
57029;SDS011;42920;45.306;20.448;2022-09-24T16:34:26;46.10;;;19.08;;
57029;SDS011;42920;45.306;20.448;2022-09-24T16:36:52;31.30;;;15.52;;
57029;SDS011;42920;45.306;20.448;2022-09-24T16:39:18;29.10;;;14.60;;
57029;SDS011;42920;45.306;20.448;2022-09-24T16:41:47;26.63;;;14.25;;
57029;SDS011;42920;45.306;20.448;2022-09-24T16:44:14;28.92;;;15.80;;
57029;SDS011;42920;45.306;20.448;2022-09-24T16:46:40;34.20;;;15.48;;
57029;SDS011;42920;45.306;20.448;2022-09-24T16:49:07;32.42;;;16.27;;
57029;SDS011;42920;45.306;20.448;2022-09-24T16:51:33;26.35;;;13.93;;
57029;SDS011;42920;45.306;20.448;2022-09-24T16:53:58;17.02;;;10.20;;
57029;SDS011;42920;45.306;20.448;2022-09-24T16:56:24;18.75;;;10.88;;
57029;SDS011;42920;45.306;20.448;2022-09-24T16:58:50;23.55;;;13.82;;
57029;SDS011;42920;45.306;20.448;2022-09-24T17:01:17;23.60;;;12.90;;
57029;SDS011;42920;45.306;20.448;2022-09-24T17:03:48;23.42;;;11.57;;
57029;SDS011;42920;45.306;20.448;2022-09-24T17:06:16;18.35;;;11.25;;
57029;SDS011;42920;45.306;20.448;2022-09-24T17:08:43;20.90;;;8.82;;
57029;SDS011;42920;45.306;20.448;2022-09-24T17:11:27;15.07;;;8.57;;
57029;SDS011;42920;45.306;20.448;2022-09-24T17:13:53;13.60;;;8.07;;
57029;SDS011;42920;45.306;20.448;2022-09-24T17:16:20;16.50;;;9.13;;
57029;SDS011;42920;45.306;20.448;2022-09-24T17:18:46;38.08;;;19.45;;
57029;SDS011;42920;45.306;20.448;2022-09-24T17:21:12;29.27;;;16.40;;
57029;SDS011;42920;45.306;20.448;2022-09-24T17:23:38;20.70;;;11.50;;
57029;SDS011;42920;45.306;20.448;2022-09-24T17:26:06;16.83;;;10.35;;
57029;SDS011;42920;45.306;20.448;2022-09-24T17:28:33;17.38;;;10.32;;
57029;SDS011;42920;45.306;20.448;2022-09-24T17:31:00;19.00;;;8.85;;
57029;SDS011;42920;45.306;20.448;2022-09-24T17:33:26;17.90;;;8.95;;